createdAt,value
2022-11-19T00:01:12.689Z,99.14
2022-11-19T00:03:40.191Z,99.51
2022-11-19T00:06:15.143Z,98.69
2022-11-19T00:08:42.352Z,98.87
2022-11-19T00:11:14.316Z,97.99
2022-11-19T00:13:42.328Z,98.13
2022-11-19T00:16:12.571Z,97.80
2022-11-19T00:18:39.563Z,97.47
2022-11-19T00:21:11.970Z,97.20
2022-11-19T00:23:39.610Z,97.17
2022-11-19T00:26:14.389Z,96.95
2022-11-19T00:28:41.805Z,96.13
2022-11-19T00:31:13.185Z,96.13
2022-11-19T00:33:41.158Z,95.90
2022-11-19T00:36:10.789Z,95.88
2022-11-19T00:38:37.349Z,96.18
2022-11-19T00:41:04.266Z,95.58
2022-11-19T00:43:49.697Z,95.79
2022-11-19T00:46:22.076Z,95.95
2022-11-19T00:48:50.336Z,94.52
2022-11-19T00:51:18.489Z,93.96
2022-11-19T00:53:45.591Z,94.20
2022-11-19T00:56:15.373Z,94.77
2022-11-19T00:58:42.774Z,93.16
2022-11-19T01:01:10.471Z,93.05
2022-11-19T01:03:38.430Z,93.75
2022-11-19T01:06:05.361Z,92.84
2022-11-19T01:08:31.800Z,92.10
2022-11-19T01:11:16.416Z,92.32
2022-11-19T01:13:43.312Z,92.71
2022-11-19T01:16:18.641Z,92.44
2022-11-19T01:18:48.086Z,91.83
2022-11-19T01:21:15.532Z,91.80
2022-11-19T01:23:43.486Z,92.47
2022-11-19T01:26:11.693Z,91.37
2022-11-19T01:28:38.575Z,91.72
2022-11-19T01:31:13.409Z,91.71
2022-11-19T01:33:40.468Z,91.62
2022-11-19T01:36:21.461Z,91.60
2022-11-19T01:38:50.819Z,92.16
2022-11-19T01:41:19.426Z,91.62
2022-11-19T01:43:50.252Z,92.41
2022-11-19T01:46:22.297Z,92.90
2022-11-19T01:48:53.908Z,92.10
2022-11-19T01:51:25.889Z,91.69
2022-11-19T01:53:55.663Z,91.57
2022-11-19T01:56:22.684Z,90.52
2022-11-19T01:58:55.704Z,90.48
2022-11-19T02:01:22.773Z,90.02
2022-11-19T02:03:50.492Z,89.89
2022-11-19T02:06:17.311Z,89.59
2022-11-19T02:08:46.285Z,89.80
2022-11-19T02:11:24.907Z,89.88
2022-11-19T02:14:13.335Z,90.37
2022-11-19T02:16:43.639Z,90.29
2022-11-19T02:19:34.332Z,89.58
2022-11-19T02:22:15.881Z,88.94
2022-11-19T02:25:01.868Z,89.30
2022-11-19T02:27:50.199Z,89.71
2022-11-19T02:30:19.192Z,89.60
2022-11-19T02:33:07.716Z,90.07
2022-11-19T02:35:58.926Z,89.84
2022-11-19T02:38:40.365Z,89.87
2022-11-19T02:41:35.038Z,88.50
2022-11-19T02:44:45.421Z,88.27
2022-11-19T02:47:20.104Z,87.78
2022-11-19T02:49:49.290Z,88.18
2022-11-19T02:52:18.452Z,87.54
2022-11-19T02:54:44.849Z,88.17
2022-11-19T02:57:12.691Z,86.86
2022-11-19T03:00:01.744Z,87.10
2022-11-19T03:02:58.597Z,87.75
2022-11-19T03:05:29.220Z,88.37
2022-11-19T03:07:55.741Z,87.49
2022-11-19T03:10:27.010Z,87.38
2022-11-19T03:12:58.595Z,88.12
2022-11-19T03:16:02.700Z,87.08
2022-11-19T03:18:44.966Z,87.76
2022-11-19T03:21:33.353Z,88.69
2022-11-19T03:24:08.298Z,88.54
2022-11-19T03:26:41.198Z,87.54
2022-11-19T03:29:12.948Z,86.88
2022-11-19T03:31:48.466Z,86.85
2022-11-19T03:34:22.100Z,86.98
2022-11-19T03:36:53.766Z,87.89
2022-11-19T03:39:22.439Z,87.47
2022-11-19T03:41:51.420Z,87.56
2022-11-19T03:44:31.077Z,87.76
2022-11-19T03:47:27.654Z,87.96
2022-11-19T03:49:59.298Z,88.19
2022-11-19T03:52:25.747Z,88.38
2022-11-19T03:54:52.751Z,88.17
2022-11-19T03:57:21.542Z,88.01
2022-11-19T03:59:47.916Z,88.27
2022-11-19T04:02:15.473Z,88.50
2022-11-19T04:04:41.971Z,88.43
2022-11-19T04:07:21.959Z,88.15
2022-11-19T04:09:49.443Z,87.96
2022-11-19T04:12:19.168Z,87.74
2022-11-19T04:14:45.713Z,88.01
2022-11-19T04:17:12.200Z,88.54
2022-11-19T04:19:38.629Z,88.23
2022-11-19T04:22:05.045Z,88.90
2022-11-19T04:24:31.746Z,88.94
2022-11-19T04:26:58.206Z,89.23
2022-11-19T04:29:24.827Z,89.43
2022-11-19T04:31:51.315Z,89.21
2022-11-19T04:34:17.769Z,89.07
2022-11-19T04:36:44.235Z,89.97
2022-11-19T04:39:12.294Z,88.46
2022-11-19T04:41:39.884Z,88.63
2022-11-19T04:44:07.144Z,88.74
2022-11-19T04:46:34.028Z,88.61
2022-11-19T04:49:00.681Z,88.88
2022-11-19T04:51:27.094Z,88.78
2022-11-19T04:53:55.252Z,88.73
2022-11-19T04:56:21.683Z,89.13
2022-11-19T04:58:48.051Z,89.47
2022-11-19T05:01:14.611Z,89.18
2022-11-19T05:03:41.193Z,88.15
2022-11-19T05:06:07.962Z,88.47
2022-11-19T05:08:34.316Z,88.29
2022-11-19T05:11:00.694Z,89.52
2022-11-19T05:13:27.037Z,89.06
2022-11-19T05:15:53.438Z,88.92
2022-11-19T05:18:19.809Z,89.36
2022-11-19T05:20:47.520Z,87.98
2022-11-19T05:23:13.916Z,88.33
2022-11-19T05:25:40.484Z,88.05
2022-11-19T05:28:07.132Z,88.12
2022-11-19T05:30:33.547Z,88.39
2022-11-19T05:33:00.048Z,88.54
2022-11-19T05:35:26.466Z,88.13
2022-11-19T05:37:52.841Z,87.07
2022-11-19T05:40:19.259Z,87.69
2022-11-19T05:42:45.703Z,87.94
2022-11-19T05:45:12.687Z,88.30
2022-11-19T05:47:40.689Z,87.32
2022-11-19T05:50:09.967Z,87.19
2022-11-19T05:52:36.362Z,86.97
2022-11-19T05:55:03.255Z,86.25
2022-11-19T05:57:29.752Z,86.60
2022-11-19T05:59:56.121Z,87.02
2022-11-19T06:02:22.542Z,85.71
2022-11-19T06:04:48.972Z,86.81
2022-11-19T06:07:15.423Z,86.39
2022-11-19T06:09:41.789Z,86.37
2022-11-19T06:12:08.170Z,86.14
2022-11-19T06:14:34.796Z,86.31
2022-11-19T06:17:01.395Z,86.49
2022-11-19T06:19:27.803Z,86.03
2022-11-19T06:21:54.274Z,86.53
2022-11-19T06:24:21.287Z,86.12
2022-11-19T06:26:47.685Z,85.24
2022-11-19T06:29:14.998Z,85.34
2022-11-19T06:31:41.789Z,85.71
2022-11-19T06:34:08.455Z,86.25
2022-11-19T06:36:39.927Z,86.15
2022-11-19T06:39:08.428Z,85.68
2022-11-19T06:41:34.907Z,86.23
2022-11-19T06:44:01.373Z,85.25
2022-11-19T06:46:27.863Z,85.55
2022-11-19T06:48:54.269Z,85.46
2022-11-19T06:51:20.648Z,84.85
2022-11-19T06:53:47.037Z,85.63
2022-11-19T06:56:13.577Z,85.50
2022-11-19T06:58:40.149Z,84.71
2022-11-19T07:01:06.916Z,85.93
2022-11-19T07:03:33.355Z,85.54
2022-11-19T07:06:02.708Z,85.44
2022-11-19T07:08:33.470Z,85.79
2022-11-19T07:11:00.362Z,85.92
2022-11-19T07:13:46.717Z,85.91
2022-11-19T07:16:13.107Z,85.15
2022-11-19T07:18:39.458Z,84.17
2022-11-19T07:21:05.884Z,84.65
2022-11-19T07:23:32.255Z,84.69
2022-11-19T07:26:01.934Z,84.87
2022-11-19T07:28:28.333Z,84.99
2022-11-19T07:30:54.841Z,85.53
2022-11-19T07:33:21.263Z,84.90
2022-11-19T07:35:47.858Z,85.14
2022-11-19T07:38:14.467Z,85.20
2022-11-19T07:40:40.815Z,86.70
2022-11-19T07:43:07.202Z,87.03
2022-11-19T07:45:33.713Z,85.75
2022-11-19T07:48:00.103Z,86.05
2022-11-19T07:50:26.510Z,84.67
2022-11-19T07:52:52.903Z,85.04
2022-11-19T07:55:19.331Z,86.03
2022-11-19T07:57:45.726Z,85.26
2022-11-19T08:00:12.859Z,83.88
2022-11-19T08:02:39.266Z,83.62
2022-11-19T08:05:05.824Z,83.45
2022-11-19T08:07:32.298Z,82.18
2022-11-19T08:09:58.818Z,84.00
2022-11-19T08:12:25.243Z,83.73
2022-11-19T08:14:51.603Z,82.70
2022-11-19T08:17:36.501Z,83.44
2022-11-19T08:20:03.095Z,82.52
2022-11-19T08:22:29.758Z,81.30
2022-11-19T08:24:56.111Z,82.11
2022-11-19T08:27:22.505Z,81.95
2022-11-19T08:29:48.864Z,81.85
2022-11-19T08:32:15.248Z,81.93
2022-11-19T08:34:41.671Z,81.83
2022-11-19T08:37:08.145Z,82.28
2022-11-19T08:39:34.521Z,82.79
2022-11-19T08:42:19.541Z,81.64
2022-11-19T08:44:46.122Z,81.86
2022-11-19T08:47:12.514Z,81.77
2022-11-19T08:49:38.912Z,82.95
2022-11-19T08:52:05.331Z,82.62
2022-11-19T08:54:32.393Z,82.44
2022-11-19T08:56:58.982Z,82.32
2022-11-19T08:59:25.417Z,81.64
2022-11-19T09:01:51.855Z,80.41
2022-11-19T09:04:18.713Z,80.94
2022-11-19T09:06:45.433Z,79.88
2022-11-19T09:09:11.845Z,80.00
2022-11-19T09:11:42.455Z,80.39
2022-11-19T09:14:09.374Z,78.37
2022-11-19T09:16:35.801Z,79.80
2022-11-19T09:19:02.266Z,78.81
2022-11-19T09:21:29.015Z,79.87
2022-11-19T09:23:55.398Z,80.67
2022-11-19T09:26:21.771Z,80.63
2022-11-19T09:28:49.283Z,80.18
2022-11-19T09:31:18.045Z,79.42
2022-11-19T09:33:50.063Z,81.27
2022-11-19T09:36:18.184Z,79.87
2022-11-19T09:38:45.026Z,81.66
2022-11-19T09:41:36.757Z,81.57
2022-11-19T09:44:37.323Z,79.61
2022-11-19T09:47:22.783Z,80.92
2022-11-19T09:50:08.013Z,79.29
2022-11-19T09:52:43.616Z,80.43
2022-11-19T09:55:17.708Z,80.04
2022-11-19T09:57:52.680Z,80.92
2022-11-19T10:00:22.415Z,81.05
2022-11-19T10:02:49.198Z,80.88
2022-11-19T10:05:22.934Z,81.77
2022-11-19T10:07:58.192Z,81.47
2022-11-19T10:10:42.156Z,81.63
2022-11-19T10:13:32.107Z,82.59
2022-11-19T10:16:17.236Z,80.66
2022-11-19T10:19:09.577Z,82.91
2022-11-19T10:22:05.330Z,80.16
2022-11-19T10:24:41.102Z,79.86
2022-11-19T10:27:21.877Z,80.67
2022-11-19T10:29:52.691Z,79.48
2022-11-19T10:32:32.617Z,79.20
2022-11-19T10:35:07.587Z,79.75
2022-11-19T10:37:37.853Z,80.89
2022-11-19T10:40:23.747Z,80.54
2022-11-19T10:42:55.836Z,80.21
2022-11-19T10:45:24.808Z,79.58
2022-11-19T10:47:53.717Z,78.82
2022-11-19T10:50:24.680Z,80.14
2022-11-19T10:52:55.668Z,79.06
2022-11-19T10:55:33.712Z,79.68
2022-11-19T10:58:11.644Z,80.61
2022-11-19T11:00:40.827Z,81.02
2022-11-19T11:03:18.292Z,79.32
2022-11-19T11:06:05.229Z,79.70
2022-11-19T11:08:32.770Z,78.22
2022-11-19T11:10:59.848Z,78.61
2022-11-19T11:13:55.564Z,79.48
2022-11-19T11:16:29.926Z,79.68
2022-11-19T11:18:59.294Z,80.25
2022-11-19T11:21:34.402Z,80.67
2022-11-19T11:24:02.594Z,79.85
2022-11-19T11:26:30.803Z,78.15
2022-11-19T11:29:12.444Z,79.81
2022-11-19T11:31:47.331Z,77.77
2022-11-19T11:34:27.514Z,78.82
2022-11-19T11:36:55.012Z,77.53
2022-11-19T11:39:34.420Z,79.18
2022-11-19T11:42:05.823Z,79.54
2022-11-19T11:44:35.264Z,75.14
2022-11-19T11:47:14.333Z,77.54
2022-11-19T11:49:43.709Z,76.56
2022-11-19T11:52:45.034Z,76.31
2022-11-19T11:55:32.284Z,76.06
2022-11-19T11:58:04.952Z,77.20
2022-11-19T12:00:42.530Z,74.01
2022-11-19T12:03:12.795Z,75.15
2022-11-19T12:06:05.297Z,75.41
2022-11-19T12:08:55.173Z,75.19
2022-11-19T12:11:54.082Z,74.09
2022-11-19T12:15:03.748Z,75.87
2022-11-19T12:17:49.860Z,74.60
2022-11-19T12:20:43.975Z,73.02
2022-11-19T12:23:10.342Z,71.63
2022-11-19T12:25:48.790Z,73.26
2022-11-19T12:28:27.222Z,72.11
2022-11-19T12:31:05.597Z,73.98
2022-11-19T12:34:05.520Z,73.59
2022-11-19T12:36:47.056Z,71.89
2022-11-19T12:39:31.742Z,72.50
2022-11-19T12:42:24.481Z,70.76
2022-11-19T12:45:25.514Z,71.28
2022-11-19T12:48:23.014Z,71.56
2022-11-19T12:51:16.795Z,69.98
2022-11-19T12:54:22.426Z,70.39
2022-11-19T12:57:04.519Z,71.30
2022-11-19T12:59:37.243Z,67.48
2022-11-19T13:02:14.243Z,67.79
2022-11-19T13:05:08.508Z,69.58
2022-11-19T13:07:46.030Z,67.62
2022-11-19T13:10:20.988Z,68.99
2022-11-19T13:12:54.284Z,68.18
2022-11-19T13:15:42.483Z,68.29
2022-11-19T13:18:14.111Z,68.23
2022-11-19T13:20:57.905Z,67.93
2022-11-19T13:23:30.084Z,67.72
2022-11-19T13:26:20.102Z,66.80
2022-11-19T13:28:54.701Z,67.57
2022-11-19T13:31:41.130Z,66.06
2022-11-19T13:34:21.285Z,67.51
2022-11-19T13:37:16.687Z,67.45
2022-11-19T13:39:55.855Z,68.21
2022-11-19T13:42:42.542Z,67.86
2022-11-19T13:45:16.335Z,66.32
2022-11-19T13:47:57.991Z,66.82
2022-11-19T13:50:33.555Z,67.19
2022-11-19T13:53:13.956Z,68.31
2022-11-19T13:55:42.799Z,68.90
2022-11-19T13:58:14.921Z,69.16
2022-11-19T14:00:57.622Z,70.74
2022-11-19T14:04:09.414Z,68.03
2022-11-19T14:07:07.480Z,67.80
2022-11-19T14:10:00.526Z,67.25
2022-11-19T14:13:04.732Z,67.97
2022-11-19T14:15:49.784Z,69.37
2022-11-19T14:18:54.481Z,67.99
2022-11-19T14:21:42.778Z,67.52
2022-11-19T14:24:45.918Z,68.07
2022-11-19T14:27:31.625Z,68.96
2022-11-19T14:30:15.942Z,68.04
2022-11-19T14:32:52.842Z,69.41
2022-11-19T14:35:25.321Z,68.21
2022-11-19T14:37:58.799Z,68.58
2022-11-19T14:40:26.649Z,68.79
2022-11-19T14:43:21.037Z,69.77
2022-11-19T14:46:03.013Z,68.45
2022-11-19T14:48:31.407Z,67.72
2022-11-19T14:51:04.727Z,68.71
2022-11-19T14:53:31.310Z,68.40
2022-11-19T14:56:00.129Z,69.31
2022-11-19T14:58:26.707Z,69.28
2022-11-19T15:01:14.432Z,69.28
2022-11-19T15:03:50.981Z,68.43
2022-11-19T15:06:18.909Z,68.25
2022-11-19T15:08:53.890Z,68.71
2022-11-19T15:11:20.457Z,69.17
2022-11-19T15:13:48.756Z,68.90
2022-11-19T15:16:20.041Z,68.94
2022-11-19T15:18:46.365Z,69.46
2022-11-19T15:21:37.917Z,68.47
2022-11-19T15:24:35.018Z,66.47
2022-11-19T15:27:19.976Z,67.39
2022-11-19T15:30:02.033Z,66.89
2022-11-19T15:32:57.740Z,66.54
2022-11-19T15:35:50.578Z,66.81
2022-11-19T15:38:29.573Z,66.32
2022-11-19T15:40:58.713Z,67.74
2022-11-19T15:43:30.984Z,68.78
2022-11-19T15:46:04.507Z,67.10
2022-11-19T15:49:25.835Z,65.86
2022-11-19T15:52:00.989Z,66.64
2022-11-19T15:54:29.730Z,67.17
2022-11-19T15:56:59.923Z,66.97
2022-11-19T15:59:28.371Z,64.24
2022-11-19T16:02:03.708Z,65.88
2022-11-19T16:04:35.494Z,66.15
2022-11-19T16:07:02.974Z,64.27
2022-11-19T16:09:29.643Z,66.10
2022-11-19T16:12:15.884Z,64.67
2022-11-19T16:15:08.301Z,64.20
2022-11-19T16:17:44.552Z,65.86
2022-11-19T16:20:11.034Z,66.84
2022-11-19T16:22:45.925Z,65.92
2022-11-19T16:25:17.615Z,65.54
2022-11-19T16:27:45.328Z,66.15
2022-11-19T16:30:23.494Z,66.29
2022-11-19T16:32:50.520Z,66.17
2022-11-19T16:35:29.753Z,66.97
2022-11-19T16:37:58.417Z,66.48
2022-11-19T16:40:25.516Z,65.78
2022-11-19T16:42:55.662Z,66.54
2022-11-19T16:45:23.840Z,65.85
2022-11-19T16:47:58.681Z,66.30
2022-11-19T16:50:29.321Z,65.52
2022-11-19T16:52:56.169Z,66.30
2022-11-19T16:55:22.685Z,65.94
2022-11-19T16:57:52.104Z,67.37
2022-11-19T17:00:24.011Z,66.84
2022-11-19T17:02:51.471Z,66.84
2022-11-19T17:05:21.445Z,66.68
2022-11-19T17:07:49.874Z,66.12
2022-11-19T17:10:19.921Z,65.94
2022-11-19T17:12:52.331Z,67.84
2022-11-19T17:15:37.238Z,67.87
2022-11-19T17:18:09.698Z,69.25
2022-11-19T17:20:35.998Z,66.22
2022-11-19T17:23:09.904Z,67.19
2022-11-19T17:25:45.412Z,68.29
2022-11-19T17:28:17.896Z,67.99
2022-11-19T17:30:45.162Z,68.71
2022-11-19T17:33:15.288Z,69.28
2022-11-19T17:35:44.686Z,69.60
2022-11-19T17:38:24.799Z,68.22
2022-11-19T17:40:57.198Z,67.79
2022-11-19T17:43:48.155Z,67.18
2022-11-19T17:46:14.625Z,67.64
2022-11-19T17:48:42.761Z,68.75
2022-11-19T17:51:14.489Z,67.58
2022-11-19T17:53:41.302Z,66.67
2022-11-19T17:56:17.946Z,67.26
2022-11-19T17:58:44.358Z,66.11
2022-11-19T18:01:10.864Z,66.88
2022-11-19T18:03:39.006Z,66.39
2022-11-19T18:06:08.296Z,66.21
2022-11-19T18:08:36.991Z,65.74
2022-11-19T18:11:04.619Z,65.99
2022-11-19T18:13:35.100Z,66.19
2022-11-19T18:16:01.518Z,66.58
2022-11-19T18:18:27.939Z,66.13
2022-11-19T18:20:58.940Z,66.67
2022-11-19T18:23:28.162Z,66.48
2022-11-19T18:25:54.548Z,66.88
2022-11-19T18:28:20.989Z,66.54
2022-11-19T18:30:47.461Z,67.75
2022-11-19T18:33:13.862Z,67.58
2022-11-19T18:35:40.439Z,66.59
2022-11-19T18:38:06.904Z,67.12
2022-11-19T18:40:33.382Z,68.04
2022-11-19T18:43:18.143Z,67.14
2022-11-19T18:45:44.590Z,67.43
2022-11-19T18:48:11.005Z,68.26
2022-11-19T18:50:37.531Z,67.34
2022-11-19T18:53:03.961Z,66.97
2022-11-19T18:55:30.327Z,68.19
2022-11-19T18:57:56.747Z,66.50
2022-11-19T19:00:23.332Z,68.27
2022-11-19T19:02:49.748Z,69.01
2022-11-19T19:05:16.122Z,69.06
2022-11-19T19:07:42.573Z,68.57
2022-11-19T19:10:09.395Z,68.20
2022-11-19T19:12:35.763Z,66.33
2022-11-19T19:15:02.239Z,66.04
2022-11-19T19:17:30.391Z,67.80
2022-11-19T19:19:56.823Z,67.49
2022-11-19T19:22:23.375Z,67.90
2022-11-19T19:24:53.809Z,67.60
2022-11-19T19:27:23.133Z,68.23
2022-11-19T19:29:49.561Z,69.27
2022-11-19T19:32:15.915Z,70.26
2022-11-19T19:34:42.294Z,69.92
2022-11-19T19:37:08.677Z,70.69
2022-11-19T19:39:35.383Z,69.85
2022-11-19T19:42:01.750Z,70.59
2022-11-19T19:44:28.143Z,70.03
2022-11-19T19:46:54.592Z,71.58
2022-11-19T19:49:21.560Z,71.41
2022-11-19T19:51:48.814Z,71.82
2022-11-19T19:54:15.780Z,72.74
2022-11-19T19:56:42.678Z,72.76
2022-11-19T19:59:11.450Z,73.33
2022-11-19T20:01:37.924Z,73.07
2022-11-19T20:04:09.654Z,73.00
2022-11-19T20:06:41.534Z,73.09
2022-11-19T20:09:09.287Z,73.39
2022-11-19T20:11:37.062Z,73.06
2022-11-19T20:14:05.361Z,74.01
2022-11-19T20:16:32.801Z,75.06
2022-11-19T20:19:00.868Z,75.49
2022-11-19T20:21:31.382Z,75.65
2022-11-19T20:23:57.847Z,75.82
2022-11-19T20:26:27.744Z,76.09
2022-11-19T20:28:56.712Z,75.98
2022-11-19T20:31:23.829Z,76.39
2022-11-19T20:33:55.747Z,76.82
2022-11-19T20:36:24.357Z,76.61
2022-11-19T20:38:51.576Z,76.76
2022-11-19T20:41:37.656Z,77.31
2022-11-19T20:44:20.151Z,77.27
2022-11-19T20:46:52.550Z,77.00
2022-11-19T20:49:21.421Z,77.38
2022-11-19T20:51:48.399Z,77.37
2022-11-19T20:54:15.104Z,76.86
2022-11-19T20:56:42.480Z,77.49
2022-11-19T20:59:09.682Z,77.60
2022-11-19T21:01:38.827Z,77.67
2022-11-19T21:04:05.572Z,78.11
2022-11-19T21:06:32.086Z,77.80
2022-11-19T21:08:58.660Z,78.92
2022-11-19T21:11:25.335Z,79.97
2022-11-19T21:13:51.871Z,80.05
2022-11-19T21:16:21.442Z,80.68
2022-11-19T21:18:48.103Z,81.26
2022-11-19T21:21:16.345Z,82.63
2022-11-19T21:23:43.256Z,83.25
2022-11-19T21:26:13.705Z,83.91
2022-11-19T21:28:40.147Z,84.60
2022-11-19T21:31:06.638Z,83.93
2022-11-19T21:33:33.098Z,84.25
2022-11-19T21:36:00.091Z,84.26
2022-11-19T21:38:26.471Z,83.87
2022-11-19T21:40:54.952Z,83.46
2022-11-19T21:43:23.338Z,82.71
2022-11-19T21:45:50.267Z,82.72
2022-11-19T21:48:16.670Z,82.41
2022-11-19T21:50:43.141Z,81.56
2022-11-19T21:53:10.972Z,79.95
2022-11-19T21:55:37.707Z,80.09
2022-11-19T21:58:05.633Z,80.41
2022-11-19T22:00:33.767Z,80.79
2022-11-19T22:03:00.559Z,81.14
2022-11-19T22:05:27.687Z,80.79
2022-11-19T22:07:54.094Z,80.96
2022-11-19T22:10:20.840Z,81.33
2022-11-19T22:12:47.284Z,81.85
2022-11-19T22:15:14.648Z,82.01
2022-11-19T22:17:41.136Z,82.76
2022-11-19T22:20:07.966Z,82.61
2022-11-19T22:22:34.419Z,82.53
2022-11-19T22:25:00.835Z,82.88
2022-11-19T22:27:30.390Z,82.59
2022-11-19T22:29:56.918Z,82.68
2022-11-19T22:32:23.446Z,81.89
2022-11-19T22:34:49.815Z,81.47
2022-11-19T22:37:16.183Z,80.90
2022-11-19T22:39:43.784Z,81.15
2022-11-19T22:42:10.275Z,81.45
2022-11-19T22:44:36.734Z,81.40
2022-11-19T22:47:03.227Z,81.63
2022-11-19T22:49:29.672Z,81.60
2022-11-19T22:51:56.121Z,82.54
2022-11-19T22:54:22.509Z,83.23
2022-11-19T22:56:48.902Z,83.36
2022-11-19T22:59:15.257Z,83.43
2022-11-19T23:01:41.656Z,83.60
2022-11-19T23:04:08.320Z,83.85
2022-11-19T23:06:36.237Z,84.62
2022-11-19T23:09:04.174Z,84.61
2022-11-19T23:11:49.212Z,84.84
2022-11-19T23:14:17.787Z,84.79
2022-11-19T23:16:44.813Z,84.77
2022-11-19T23:19:13.152Z,85.24
2022-11-19T23:21:40.651Z,85.85
2022-11-19T23:24:07.946Z,86.43
2022-11-19T23:26:34.389Z,86.41
2022-11-19T23:29:01.246Z,87.12
2022-11-19T23:31:33.331Z,87.23
2022-11-19T23:34:00.055Z,87.15
2022-11-19T23:36:29.087Z,87.19
2022-11-19T23:38:56.059Z,86.79
2022-11-19T23:41:22.474Z,87.31
2022-11-19T23:43:49.643Z,87.96
2022-11-19T23:46:24.866Z,87.84
2022-11-19T23:48:51.747Z,88.60
2022-11-19T23:51:20.767Z,88.89
2022-11-19T23:53:48.048Z,89.21
2022-11-19T23:56:16.424Z,89.45
2022-11-19T23:58:43.516Z,88.65
